ADDS METAR Data INFO
IDs: Format: Raw Decoded Include TAF

Data at: 0938 UTC 25 Jun 2018

KOMH 250915Z AUTO 00000KT 10SM CLR 20/17 A3000 RMK AO2
KOMH 250900Z AUTO 22004KT 10SM CLR 20/17 A2999 RMK AO2
KOMH 250835Z AUTO 30004KT 10SM SCT060 22/16 A2998 RMK AO2
KOMH 250815Z AUTO 30006KT 10SM CLR 22/16 A2997 RMK AO2
KOMH 250755Z AUTO 30005KT 10SM SCT070 22/17 A2996 RMK AO2
KOMH 250735Z AUTO 29007KT 10SM SCT070 21/17 A2996 RMK AO2
KOMH 250715Z AUTO 00000KT 10SM SCT060 SCT070 SCT080 20/18 A2996 RMK AO2
KOMH 250655Z AUTO 00000KT 10SM SCT060 20/19 A2996 RMK AO2
KOMH 250635Z AUTO 00000KT 10SM BKN070 21/19 A2996 RMK AO2
KOMH 250615Z AUTO 00000KT 10SM BKN070 20/19 A2995 RMK AO2
KOMH 250555Z AUTO 00000KT 10SM BKN070 20/19 A2996 RMK AO2
KOMH 250535Z AUTO 00000KT 10SM CLR 20/20 A2995 RMK AO2
KOMH 250515Z AUTO 00000KT 7SM SCT075 20/19 A2994 RMK AO2
KOMH 250455Z AUTO 00000KT 7SM SCT075 20/19 A2994 RMK AO2
KOMH 250435Z AUTO 00000KT 10SM CLR 20/20 A2994 RMK AO2
KOMH 250415Z AUTO 00000KT 10SM CLR 20/20 A2994 RMK AO2
KOMH 250355Z AUTO 23003KT 10SM SCT070 20/20 A2994 RMK AO2
KOMH 250335Z AUTO 24003KT 10SM SCT100 21/20 A2995 RMK AO2
KOMH 250315Z AUTO 00000KT 10SM SCT100 21/20 A2995 RMK AO2
KOMH 250255Z AUTO 20004KT 10SM CLR 21/20 A2995 RMK AO2
KOMH 250235Z AUTO 21004KT 10SM CLR 21/20 A2995 RMK AO2
KOMH 250215Z AUTO 20005KT 10SM CLR 22/21 A2995 RMK AO2
KOMH 250155Z AUTO 23005KT 10SM CLR 21/21 A2994 RMK AO2
KOMH 250135Z AUTO 25003KT 10SM CLR 22/21 A2993 RMK AO2
KOMH 250115Z AUTO 00000KT 10SM CLR 22/21 A2992 RMK AO2
KOMH 250055Z AUTO 26003KT 10SM CLR 22/21 A2990 RMK AO2
KOMH 250035Z AUTO 23003KT 10SM CLR 23/22 A2989 RMK AO2
KOMH 250015Z AUTO 22004KT 10SM CLR 25/22 A2990 RMK AO2
KOMH 242355Z AUTO 22005KT 10SM CLR 26/22 A2989 RMK AO2
KOMH 242340Z AUTO 22004KT 10SM SCT100 26/22 A2988 RMK AO2
KOMH 242315Z AUTO 21005KT 10SM BKN100 BKN120 26/22 A2988 RMK AO2
KOMH 242255Z AUTO 00000KT 10SM -RA SCT050 SCT075 OVC090 25/22 A2988 RMK AO2 LTG DSNT N
KOMH 242235Z AUTO 00000KT 10SM BKN075 BKN085 26/22 A2989 RMK AO2
KOMH 242215Z AUTO 00000KT 10SM CLR 26/22 A2988 RMK AO2
KOMH 242155Z AUTO 00000KT 10SM CLR 26/22 A2988 RMK AO2
KOMH 242135Z AUTO 00000KT 10SM SCT100 26/22 A2988 RMK AO2
KOMH 242115Z AUTO 00000KT 10SM CLR 26/22 A2988 RMK AO2 LTG DSNT SE
KOMH 242055Z AUTO 00000KT 10SM SCT100 26/22 A2987 RMK AO2 LTG DSNT E AND SE
KOMH 242035Z AUTO 00000KT 10SM BKN100 BKN120 25/22 A2987 RMK AO2 LTG DSNT E
KOMH 242015Z AUTO 00000KT 10SM SCT085 SCT120 23/21 A2988 RMK AO2 LTG DSNT E AND SE
KOMH 241955Z AUTO 00000KT 10SM VCTS SCT009 BKN065 OVC085 22/21 A2988 RMK AO2 LTG DSNT ALQS P0043
KOMH 241935Z AUTO 33009G28KT 1/2SM +TSRA BKN007 BKN017 OVC045 21/20 A2990 RMK AO2 LTG DSNT ALQS P0041
KOMH 241915Z AUTO 25005KT 7SM -TSRA SCT030 BKN046 OVC060 23/20 A2988 RMK AO2 LTG DSNT ALQS P0002
KOMH 241855Z AUTO 23004KT 10SM BKN048 BKN100 29/21 A2985 RMK AO2 LTG DSNT SE S AND NW
KOMH 241835Z AUTO 23004KT 10SM VCTS SCT045 SCT090 BKN100 31/20 A2985 RMK AO2 LTG DSNT W AND NW
KOMH 241815Z AUTO 23009KT 10SM SCT047 31/20 A2986 RMK AO2 LTG DSNT W AND NW
KOMH 241755Z AUTO 23006KT 10SM CLR 31/21 A2987 RMK AO2
KOMH 241735Z AUTO 22004KT 10SM CLR 31/22 A2988 RMK AO2
KOMH 241715Z AUTO 24006G14KT 10SM CLR 31/21 A2988 RMK AO2 LTG DSNT NW
KOMH 241655Z AUTO 25010G14KT 10SM SCT045 SCT110 30/20 A2989 RMK AO2
KOMH 241640Z AUTO 22T110N ZCZC MEMMTRBNA SPUS70 KBNA 241646 SPECI
KOMH 241615Z AUTO 25004KT 10SM SCT120 29/21 A2989 RMK AO2
KOMH 241600Z AUTO 25004KT 10SM SCT120 30/21 A2989 RMK AO2
KOMH 241535Z AUTO 21005K2ZCZC MIAMTRFLL SPUS70 KFLL 241550 SPECI
KOMH 241515Z AUTO 24005KT 10SM CLR 28/21 A2989 RMK AO2
KOMH 241455Z AUTO 22004KT 10SM CLR 28/22 A2989 RMK AO2
KOMH 241435Z AUTO 24/22 10SM CLR 26/22 A2986 RMK AO1 T02640217
KOMH 241415Z AUTO 22003KZCZC PHXTAFPHX FTUS45 KPSR 241426 AAA TAF AMD
KOMH 241355Z AUTO 00000KT 10SM OVC110 25/21 A2988 RMK AO2
KOMH 241335Z AUTO 24 AO2ZCZC MEMTAFMEM FTUS80 KMEM 241342 AAA
KOMH 241315Z AUTO 00 AO2ZCZC BOSTAFBOS FTUS41 KBOX 241327 AAA TAF AMD
KOMH 241255Z AUTO 00000KT 10SM SCT070 OVC090 22/21 A2990 RMK AO2
KOMH 241235Z AUTO 00N090990 RMK AO2
KOMH 241215Z AUTO 23003KT075 BKN120 22/20 A2990 RMK AO2
KOMH 241155Z AUTO 21003KT 10SM -RA SCT044 SCT050 BKN075 22/20 A2989 RMK AO2
KOMH 241135Z AUTO 00C090N ZCZC PHLMTRMDT SPUS70 KMDT 241146 SPECI
KOMH 241115Z AUTO 00T090ZCZC WBCMTRNHK SPZZ40 KNHK 241129 RRF SPECI
KOMH 241055Z AUTO 00000KT 10SM SCT065 20/20 A2988 RMK AO2
KOMH 241035Z AUTO 00000KA ZCZC PHLMTRMDT SPUS70 KMDT 241050 SPECI
KOMH 241015Z AUTO 00000KT 2SM BR CLR 19/18 A2987 RMK AO2
KOMH 240955Z AUTO 00000KT 10SM SCT085 20/19 A2987 RMK AO2
KOMH 240935Z AUTO 23003KZCZC WBCMTRNHK SAXX60 KNHK 241000 CCB METAR
KOMH 240915Z AUTO 00000KZCZC PHLMTRDOV SPUS17 KDOV 240932 RRE SPECI
KOMH 240855Z AUTO 22003KT 10SM CLR 20/20 A2985 RMK AO2
KOMH 240835Z AUTO 00000KT 7SM SCT090 20/20 A2985 RMK AO2
KOMH 240815Z AUTO 00000KZCZC PHLMTRPHL SPUS70 KPHL 240848 SPECI
KOMH 240755Z AUTO 00000KT 10SM SCT070 BKN090 20/19 A2985 RMK AO2
KOMH 240735Z AUTO 23004KT 10SM SCT070 BKN080 20/20 A2985 RMK AO2
KOMH 240715Z AUTO 23003KT 10SM BKN070 BKN085 20/20 A2986 RMK AO2
KOMH 240655Z AUTO 21003KT 10SM SCT085 20/20 A2986 RMK AO2
KOMH 240635Z AUTO 00000KT 10SM CLR 20/20 A2986 RMK AO2
KOMH 240615Z AUTO 00000KT 10SM CLR 20/20 A2985 RMK AO2
KOMH 240555Z AUTO 00000KT 10SM SCT080 20/20 A2986 RMK AO2
KOMH 240535Z AUTO 00000KT 10SM OVC080 20/20 A2986 RMK AO2
KOMH 240515Z AUTO 00000KT 10SM BKN080 20/20 A2986 RMK AO2
KOMH 240455Z AUTO 00000KT 10SM CLR 20/20 A2985 RMK AO2
KOMH 240435Z AUTO 00000KT 10SM CLR 20/20 A2986 RMK AO2
KOMH 240415Z AUTO 00000KT 10SM CLR 20/20 A2985 RMK AO2
KOMH 240355Z AUTO 00000KT 10SM CLR 21/20 A2985 RMK AO2
KOMH 240335Z AUTO 00000KT 10SM CLR 21/20 A2985 RMK AO2
KOMH 240315Z AUTO 00000KT 10SM CLR 21/20 A2985 RMK AO2
KOMH 240255Z AUTO 00000KT 10SM CLR 22/20 A2984 RMK AO2
KOMH 240235Z AUTO 17004KT 10SM CLR 22/21 A2984 RMK AO2
KOMH 240215Z AUTO 00000KT 10SM CLR 22/21 A2983 RMK AO2
KOMH 240155Z AUTO 00000KT 10SM CLR 22/21 A2982 RMK AO2
KOMH 240135Z AUTO 23003KT 10SM CLR 22/21 A2982 RMK AO2
KOMH 240115Z AUTO 00000KT 10SM CLR 23/21 A2982 RMK AO2
KOMH 240055Z AUTO 20003KT 10SM CLR 23/21 A2982 RMK AO2
KOMH 240035Z AUTO 00000KT 10SM CLR 24/21 A2981 RMK AO2
KOMH 240015Z AUTO 20004KT 10SM CLR 25/21 A2981 RMK AO2
KOMH 232355Z AUTO 19006KT 10SM CLR 26/21 A2980 RMK AO2
KOMH 232335Z AUTO 21007KT 10SM CLR 26/21 A2980 RMK AO2
KOMH 232315Z AUTO 21004KT 10SM CLR 27/21 A2980 RMK AO2
KOMH 232255Z AUTO 21009G15KT 10SM CLR 27/21 A2979 RMK AO2
KOMH 232235Z AUTO 23007G17KT 10SM CLR 28/21 A2978 RMK AO2
KOMH 232215Z AUTO 21008KT 10SM CLR 28/21 A2977 RMK AO2 LTG DSNT NE
KOMH 232155Z AUTO 22010KT 10SM CLR 28/22 A2977 RMK AO2